Terminal Aerodrome Forecast
Issued by NWS

Home | Current Version | Previous Version | Text Only | Print | Product List | Glossary On
Versions: 1 2 3 4 5 6 7 8 9 10 11 12 13 14 15 16 17 18 19 20 21 22 23 24 25 26 27 28 29 30 31
000
FTUS41 KGYX 251743
TAFAUG
TAF
KAUG 251743Z 2518/2618 16008KT P6SM BKN050
     FM252000 14006KT 5SM -SHRA BR OVC015
     FM260500 06004KT 1/2SM FG OVC003
     FM261400 06006KT 4SM BR BKN008=

USA.gov is the U.S. government's official web portal to all federal, state and local government web resources and services.